Time;durP1;ratioP1;P1;durP2;ratioP2;P2;SDS_P1;SDS_P2;PMS_P1;PMS_P2;Temp;Humidity;BMP_temperature;BMP_pressure;BME280_temperature;BME280_humidity;BME280_pressure;Samples;Min_cycle;Max_cycle;Signal;HPM_P1;HPM_P2
2023/07/19 00:01:43;;;;;;;4.47;1.80;;;;;;;;;;6231537;23;20445;-80
2023/07/19 00:04:14;;;;;;;3.63;1.80;;;;;;;;;;6235148;23;20367;-79
2023/07/19 00:06:41;;;;;;;4.03;1.73;;;;;;;;;;6231890;23;20444;-79
2023/07/19 00:09:09;;;;;;;4.00;1.53;;;;;;;;;;6231421;23;20453;-80
2023/07/19 00:11:38;;;;;;;3.33;1.40;;;;;;;;;;6235631;23;20420;-80
2023/07/19 00:14:06;;;;;;;4.27;1.57;;;;;;;;;;6237751;23;20417;-81
2023/07/19 00:16:33;;;;;;;5.37;1.67;;;;;;;;;;6235103;23;20422;-81
2023/07/19 00:19:01;;;;;;;6.00;1.93;;;;;;;;;;6237617;23;20403;-80
2023/07/19 00:21:28;;;;;;;4.77;2.10;;;;;;;;;;6237311;23;20481;-79
2023/07/19 00:23:56;;;;;;;4.10;1.90;;;;;;;;;;6235488;23;20518;-81
2023/07/19 00:26:23;;;;;;;3.70;1.70;;;;;;;;;;6234017;23;20442;-81
2023/07/19 00:28:55;;;;;;;4.70;2.03;;;;;;;;;;6234808;23;20398;-81
2023/07/19 00:31:23;;;;;;;4.90;1.87;;;;;;;;;;6234547;23;20485;-81
2023/07/19 00:33:51;;;;;;;4.40;1.97;;;;;;;;;;6232825;23;20406;-79
2023/07/19 00:36:19;;;;;;;9.73;2.03;;;;;;;;;;6233213;23;20505;-81
2023/07/19 00:38:47;;;;;;;4.67;2.30;;;;;;;;;;6238385;23;20409;-82
2023/07/19 00:41:15;;;;;;;4.27;1.97;;;;;;;;;;6233088;23;20442;-80
2023/07/19 00:43:42;;;;;;;4.57;2.10;;;;;;;;;;6233842;23;20582;-81
2023/07/19 00:46:11;;;;;;;4.57;1.80;;;;;;;;;;6235418;23;20437;-81
2023/07/19 00:48:39;;;;;;;4.70;1.80;;;;;;;;;;6237409;23;20451;-80
2023/07/19 00:51:07;;;;;;;3.83;1.80;;;;;;;;;;6235119;23;20398;-78
2023/07/19 00:53:34;;;;;;;3.87;1.80;;;;;;;;;;6234524;23;20410;-81
2023/07/19 00:56:02;;;;;;;3.97;1.87;;;;;;;;;;6235723;23;20415;-81
2023/07/19 00:58:30;;;;;;;5.63;2.13;;;;;;;;;;6236600;23;20414;-80
2023/07/19 01:00:57;;;;;;;4.83;1.77;;;;;;;;;;6233350;23;20386;-80
2023/07/19 01:03:26;;;;;;;3.67;2.03;;;;;;;;;;6234422;23;20514;-80
2023/07/19 01:05:54;;;;;;;6.60;2.10;;;;;;;;;;6235510;23;20410;-79
2023/07/19 01:08:23;;;;;;;3.97;1.50;;;;;;;;;;6232360;23;20417;-81
2023/07/19 01:10:51;;;;;;;4.73;2.00;;;;;;;;;;6233561;23;20449;-81
2023/07/19 01:13:18;;;;;;;3.00;1.40;;;;;;;;;;6235683;23;20396;-81
2023/07/19 01:15:46;;;;;;;5.33;2.00;;;;;;;;;;6233452;23;20486;-81
2023/07/19 01:18:16;;;;;;;4.50;1.80;;;;;;;;;;6235675;23;20421;-80
2023/07/19 01:20:51;;;;;;;4.77;1.67;;;;;;;;;;6235635;23;20418;-82
2023/07/19 01:23:19;;;;;;;4.13;1.67;;;;;;;;;;6235201;23;20746;-81
2023/07/19 01:25:47;;;;;;;7.07;1.80;;;;;;;;;;6232607;23;20493;-82
2023/07/19 01:28:17;;;;;;;2.90;1.40;;;;;;;;;;6234598;23;20458;-80
2023/07/19 01:30:44;;;;;;;7.30;2.07;;;;;;;;;;6236999;23;20400;-80
2023/07/19 01:33:12;;;;;;;3.50;1.57;;;;;;;;;;6235842;23;20410;-81
2023/07/19 01:35:39;;;;;;;5.30;3.27;;;;;;;;;;6233930;23;20408;-79
2023/07/19 01:38:07;;;;;;;4.70;2.07;;;;;;;;;;6230809;23;20446;-81
2023/07/19 01:40:36;;;;;;;4.10;1.63;;;;;;;;;;6233261;23;20393;-80
2023/07/19 01:43:04;;;;;;;9.23;2.10;;;;;;;;;;6235709;23;20406;-81
2023/07/19 01:45:31;;;;;;;4.20;1.80;;;;;;;;;;6233734;23;20410;-82
2023/07/19 01:47:59;;;;;;;3.67;1.50;;;;;;;;;;6233959;23;20438;-80
2023/07/19 01:50:26;;;;;;;5.63;2.07;;;;;;;;;;6235922;23;20424;-81
2023/07/19 01:52:54;;;;;;;6.57;1.93;;;;;;;;;;6233997;23;20437;-80
2023/07/19 01:55:22;;;;;;;4.80;2.43;;;;;;;;;;6232593;23;20404;-79
2023/07/19 01:57:51;;;;;;;4.90;2.00;;;;;;;;;;6234169;23;20505;-79
2023/07/19 02:00:20;;;;;;;3.80;1.80;;;;;;;;;;6233812;23;20666;-80
2023/07/19 02:02:47;;;;;;;4.33;2.03;;;;;;;;;;6232220;23;20413;-82
2023/07/19 02:05:14;;;;;;;3.13;1.60;;;;;;;;;;6232226;23;20397;-81
2023/07/19 02:07:42;;;;;;;4.53;2.00;;;;;;;;;;6235123;23;20445;-79
2023/07/19 02:10:10;;;;;;;3.93;1.50;;;;;;;;;;6231906;23;20490;-81
2023/07/19 02:12:38;;;;;;;3.60;1.27;;;;;;;;;;6230708;23;20418;-81
2023/07/19 02:15:08;;;;;;;3.30;1.70;;;;;;;;;;6232898;23;20418;-80
2023/07/19 02:17:36;;;;;;;4.00;1.87;;;;;;;;;;6236924;23;20769;-81
2023/07/19 02:20:08;;;;;;;3.13;1.60;;;;;;;;;;6231230;23;20826;-79
2023/07/19 02:22:35;;;;;;;5.00;1.90;;;;;;;;;;6229659;23;20416;-81
2023/07/19 02:25:03;;;;;;;3.90;2.03;;;;;;;;;;6232251;23;20427;-80
2023/07/19 02:27:30;;;;;;;3.43;1.80;;;;;;;;;;6234042;23;20461;-79
2023/07/19 02:29:58;;;;;;;3.40;1.57;;;;;;;;;;6228909;23;20395;-80
2023/07/19 02:32:27;;;;;;;3.93;1.70;;;;;;;;;;6235364;23;20410;-81
2023/07/19 02:34:55;;;;;;;4.57;1.90;;;;;;;;;;6236639;23;20903;-81
2023/07/19 02:37:22;;;;;;;4.20;2.10;;;;;;;;;;6233978;23;20827;-79
2023/07/19 02:39:50;;;;;;;3.40;1.80;;;;;;;;;;6230397;23;20406;-81
2023/07/19 02:42:18;;;;;;;4.40;1.90;;;;;;;;;;6233530;23;20440;-80
2023/07/19 02:44:47;;;;;;;3.63;2.03;;;;;;;;;;6235736;23;20485;-79
2023/07/19 02:47:14;;;;;;;4.70;2.00;;;;;;;;;;6235348;23;20476;-80
2023/07/19 02:49:44;;;;;;;6.60;2.73;;;;;;;;;;6237567;23;20414;-79
2023/07/19 02:52:16;;;;;;;3.30;1.80;;;;;;;;;;6234613;23;20442;-80
2023/07/19 02:54:43;;;;;;;4.63;1.83;;;;;;;;;;6235615;23;20409;-81
2023/07/19 02:57:11;;;;;;;5.10;2.07;;;;;;;;;;6236980;23;20395;-78
2023/07/19 02:59:38;;;;;;;3.47;1.50;;;;;;;;;;6232455;23;20422;-81
2023/07/19 03:02:06;;;;;;;6.70;2.20;;;;;;;;;;6236120;23;20425;-81
2023/07/19 03:04:34;;;;;;;3.70;2.10;;;;;;;;;;6235269;23;20406;-81
2023/07/19 03:07:02;;;;;;;3.87;1.80;;;;;;;;;;6232870;23;20442;-79
2023/07/19 03:09:30;;;;;;;6.90;2.50;;;;;;;;;;6237134;23;20391;-81
2023/07/19 03:11:57;;;;;;;4.20;2.57;;;;;;;;;;6238653;23;21072;-81
2023/07/19 03:14:25;;;;;;;4.57;2.30;;;;;;;;;;6235421;23;20457;-81
2023/07/19 03:16:53;;;;;;;5.57;2.50;;;;;;;;;;6234594;23;20398;-79
2023/07/19 03:19:21;;;;;;;4.63;2.17;;;;;;;;;;6236097;23;20449;-80
2023/07/19 03:21:49;;;;;;;6.50;2.33;;;;;;;;;;6233704;23;20839;-79
2023/07/19 03:24:17;;;;;;;5.10;2.70;;;;;;;;;;6233957;23;20383;-80
2023/07/19 03:26:45;;;;;;;5.80;2.50;;;;;;;;;;6234963;23;20906;-81
2023/07/19 03:29:13;;;;;;;6.97;2.57;;;;;;;;;;6234745;23;20421;-80
2023/07/19 03:31:40;;;;;;;4.40;2.43;;;;;;;;;;6228474;23;20421;-78
2023/07/19 03:34:08;;;;;;;5.80;2.17;;;;;;;;;;6231512;23;20425;-80
2023/07/19 03:36:35;;;;;;;3.90;1.63;;;;;;;;;;6231669;23;20414;-80
2023/07/19 03:39:03;;;;;;;5.60;2.63;;;;;;;;;;6229539;23;20762;-80
2023/07/19 03:41:32;;;;;;;5.13;2.40;;;;;;;;;;6235250;23;20442;-81
2023/07/19 03:43:59;;;;;;;3.60;2.10;;;;;;;;;;6238430;23;20414;-79
2023/07/19 03:46:27;;;;;;;5.57;2.53;;;;;;;;;;6234893;23;20418;-81
2023/07/19 03:48:54;;;;;;;3.80;1.87;;;;;;;;;;6232028;23;20446;-80
2023/07/19 03:51:22;;;;;;;3.73;2.33;;;;;;;;;;6234371;23;20387;-78
2023/07/19 03:53:49;;;;;;;5.00;2.70;;;;;;;;;;6233748;23;20391;-80
2023/07/19 03:56:18;;;;;;;5.23;2.70;;;;;;;;;;6231140;23;20397;-81
2023/07/19 03:58:49;;;;;;;6.63;3.00;;;;;;;;;;6235118;23;20413;-80
2023/07/19 04:01:17;;;;;;;4.97;2.50;;;;;;;;;;6237310;23;20422;-81
2023/07/19 04:03:45;;;;;;;6.73;2.77;;;;;;;;;;6231961;23;20414;-79
2023/07/19 04:06:13;;;;;;;10.50;3.37;;;;;;;;;;6234754;23;20442;-79
2023/07/19 04:08:40;;;;;;;5.10;2.93;;;;;;;;;;6233592;23;20446;-80
2023/07/19 04:11:08;;;;;;;5.47;2.90;;;;;;;;;;6234905;23;20477;-81
2023/07/19 04:13:35;;;;;;;5.80;3.20;;;;;;;;;;6228033;23;20422;-81
2023/07/19 04:16:04;;;;;;;7.07;3.30;;;;;;;;;;6231527;23;20382;-80
2023/07/19 04:18:31;;;;;;;4.70;3.07;;;;;;;;;;6237229;23;20383;-79
2023/07/19 04:20:59;;;;;;;6.10;3.00;;;;;;;;;;6229610;23;20378;-81
2023/07/19 04:23:26;;;;;;;6.17;3.40;;;;;;;;;;6231810;23;20426;-82
2023/07/19 04:25:54;;;;;;;4.80;2.50;;;;;;;;;;6235484;23;20481;-81
2023/07/19 04:28:24;;;;;;;5.13;3.50;;;;;;;;;;6231434;23;20510;-81
2023/07/19 04:30:51;;;;;;;4.67;2.50;;;;;;;;;;6226088;23;20449;-79
2023/07/19 04:33:21;;;;;;;4.33;2.57;;;;;;;;;;6229267;23;20401;-80
2023/07/19 04:35:49;;;;;;;5.27;2.17;;;;;;;;;;6235333;23;20378;-81
2023/07/19 04:38:16;;;;;;;5.80;3.40;;;;;;;;;;6232159;23;20457;-81
2023/07/19 04:40:45;;;;;;;6.90;4.00;;;;;;;;;;6230572;23;20425;-78
2023/07/19 04:43:16;;;;;;;5.30;2.57;;;;;;;;;;6205073;23;20442;-79
2023/07/19 04:45:44;;;;;;;4.10;2.20;;;;;;;;;;6206550;23;20812;-81
2023/07/19 04:48:15;;;;;;;4.10;2.60;;;;;;;;;;6201847;23;20716;-81
2023/07/19 04:50:44;;;;;;;5.27;2.73;;;;;;;;;;6203239;23;20434;-79
2023/07/19 04:53:12;;;;;;;4.80;2.30;;;;;;;;;;6205711;23;20408;-82
2023/07/19 04:55:39;;;;;;;4.60;2.10;;;;;;;;;;6199836;23;20398;-81
2023/07/19 04:58:07;;;;;;;5.60;2.53;;;;;;;;;;6204755;23;20403;-81
2023/07/19 05:00:34;;;;;;;8.73;2.27;;;;;;;;;;6204508;23;20431;-81
2023/07/19 05:03:01;;;;;;;4.50;2.03;;;;;;;;;;6200353;23;20394;-81
2023/07/19 05:05:29;;;;;;;3.93;2.10;;;;;;;;;;6203004;23;20415;-81
2023/07/19 05:07:58;;;;;;;4.83;1.73;;;;;;;;;;6200475;23;20446;-80
2023/07/19 05:10:25;;;;;;;6.13;1.87;;;;;;;;;;6203274;23;20391;-79
2023/07/19 05:12:53;;;;;;;14.00;3.60;;;;;;;;;;6205602;23;20399;-79
2023/07/19 05:15:20;;;;;;;9.47;2.60;;;;;;;;;;6198769;23;20446;-78
2023/07/19 05:17:48;;;;;;;3.80;1.77;;;;;;;;;;6196666;23;20419;-80
2023/07/19 05:20:16;;;;;;;11.40;2.97;;;;;;;;;;6203583;23;20741;-79
2023/07/19 05:22:44;;;;;;;4.57;2.23;;;;;;;;;;6207102;23;20603;-81
2023/07/19 05:25:13;;;;;;;6.47;1.93;;;;;;;;;;6203864;23;20392;-81
2023/07/19 05:27:41;;;;;;;3.30;1.90;;;;;;;;;;6201948;23;20911;-80
2023/07/19 05:30:09;;;;;;;7.30;2.00;;;;;;;;;;6208441;23;20411;-80
2023/07/19 05:32:36;;;;;;;8.50;2.30;;;;;;;;;;6208836;23;20475;-80
2023/07/19 05:35:04;;;;;;;4.30;2.07;;;;;;;;;;6206776;23;20415;-80
2023/07/19 05:37:32;;;;;;;4.80;2.60;;;;;;;;;;6203989;23;20375;-79
2023/07/19 05:39:59;;;;;;;6.60;1.90;;;;;;;;;;6223118;23;20450;-80
2023/07/19 05:42:29;;;;;;;3.83;1.67;;;;;;;;;;6230162;23;20421;-80
2023/07/19 05:44:57;;;;;;;3.50;1.80;;;;;;;;;;6232406;23;20424;-79
2023/07/19 05:47:25;;;;;;;5.67;2.10;;;;;;;;;;6234189;23;20420;-79
2023/07/19 05:49:52;;;;;;;7.43;2.67;;;;;;;;;;6233303;23;20410;-81
2023/07/19 05:52:20;;;;;;;4.63;2.17;;;;;;;;;;6231611;23;20390;-80
2023/07/19 05:54:48;;;;;;;3.43;1.97;;;;;;;;;;6231859;23;20691;-80
2023/07/19 05:57:15;;;;;;;5.10;2.20;;;;;;;;;;6234402;23;20407;-81
2023/07/19 05:59:44;;;;;;;3.20;1.80;;;;;;;;;;6231508;23;20565;-79
2023/07/19 06:02:16;;;;;;;4.13;1.70;;;;;;;;;;6227599;23;20451;-79
2023/07/19 06:04:43;;;;;;;5.40;1.90;;;;;;;;;;6228780;23;20474;-80
2023/07/19 06:07:11;;;;;;;4.80;1.90;;;;;;;;;;6230360;23;20472;-80
2023/07/19 06:09:38;;;;;;;4.53;2.00;;;;;;;;;;6234251;23;20457;-79
2023/07/19 06:12:06;;;;;;;3.07;1.30;;;;;;;;;;6228178;23;20410;-80
2023/07/19 06:14:34;;;;;;;3.53;1.70;;;;;;;;;;6230427;23;20409;-80
2023/07/19 06:17:03;;;;;;;8.70;2.63;;;;;;;;;;6231419;23;20410;-80
2023/07/19 06:19:31;;;;;;;6.40;2.03;;;;;;;;;;6229408;23;20402;-82
2023/07/19 06:22:00;;;;;;;4.27;1.77;;;;;;;;;;6233218;23;20414;-81
2023/07/19 06:24:28;;;;;;;4.20;1.90;;;;;;;;;;6233389;23;20425;-79
2023/07/19 06:26:56;;;;;;;5.57;1.83;;;;;;;;;;6231350;23;20398;-79
2023/07/19 06:29:24;;;;;;;3.00;1.40;;;;;;;;;;6235161;23;20541;-79
2023/07/19 06:31:52;;;;;;;3.87;2.17;;;;;;;;;;6235011;23;20402;-81
2023/07/19 06:34:22;;;;;;;4.53;2.47;;;;;;;;;;6232673;23;20402;-81
2023/07/19 06:36:49;;;;;;;3.70;1.87;;;;;;;;;;6233360;23;20377;-81
2023/07/19 06:39:18;;;;;;;2.80;1.57;;;;;;;;;;6236469;23;20418;-79
2023/07/19 06:41:46;;;;;;;2.80;1.23;;;;;;;;;;6233633;23;20410;-81
2023/07/19 06:44:14;;;;;;;4.40;1.90;;;;;;;;;;6234828;23;20398;-81
2023/07/19 06:46:42;;;;;;;4.20;1.90;;;;;;;;;;6232014;23;20418;-80
2023/07/19 06:49:09;;;;;;;3.33;1.60;;;;;;;;;;6234274;23;20805;-81
2023/07/19 06:51:38;;;;;;;4.13;1.90;;;;;;;;;;6231884;23;20436;-81
2023/07/19 06:54:06;;;;;;;6.97;1.50;;;;;;;;;;6227540;23;20414;-81
2023/07/19 06:56:33;;;;;;;3.60;1.70;;;;;;;;;;6228671;23;20424;-79
2023/07/19 06:59:01;;;;;;;3.17;1.60;;;;;;;;;;6234331;23;20401;-80
2023/07/19 07:01:33;;;;;;;3.63;1.60;;;;;;;;;;6233081;23;20421;-78
2023/07/19 07:04:01;;;;;;;4.30;1.37;;;;;;;;;;6228792;23;20464;-79
2023/07/19 07:06:29;;;;;;;4.33;1.60;;;;;;;;;;6231806;23;20410;-81
2023/07/19 07:08:59;;;;;;;4.00;1.97;;;;;;;;;;6234669;23;20518;-79
2023/07/19 07:11:26;;;;;;;5.67;2.10;;;;;;;;;;6230929;23;20422;-81
2023/07/19 07:13:58;;;;;;;4.83;2.30;;;;;;;;;;6227993;23;20410;-80
2023/07/19 07:16:28;;;;;;;4.90;1.93;;;;;;;;;;6233926;23;20848;-81
2023/07/19 07:18:56;;;;;;;8.80;1.93;;;;;;;;;;6235619;23;20670;-81
2023/07/19 07:21:24;;;;;;;4.40;1.70;;;;;;;;;;6234472;23;20448;-81
2023/07/19 07:23:52;;;;;;;5.93;1.90;;;;;;;;;;6231911;23;20692;-78
2023/07/19 07:26:21;;;;;;;5.83;1.40;;;;;;;;;;6235095;23;20448;-80
2023/07/19 07:28:49;;;;;;;3.13;1.20;;;;;;;;;;6230658;23;20436;-81
2023/07/19 07:31:17;;;;;;;7.37;1.90;;;;;;;;;;6229239;23;20437;-79
2023/07/19 07:33:45;;;;;;;4.57;1.70;;;;;;;;;;6231799;23;20500;-79
2023/07/19 07:36:13;;;;;;;3.50;2.20;;;;;;;;;;6229926;23;20418;-80
2023/07/19 07:38:42;;;;;;;8.97;5.00;;;;;;;;;;6230389;23;20495;-81
2023/07/19 07:41:11;;;;;;;5.60;2.70;;;;;;;;;;6231083;23;20444;-80
2023/07/19 07:43:40;;;;;;;3.87;1.60;;;;;;;;;;6234032;23;20460;-80
2023/07/19 07:46:08;;;;;;;3.70;1.80;;;;;;;;;;6228257;23;20410;-80
2023/07/19 07:48:35;;;;;;;3.90;1.30;;;;;;;;;;6232593;23;20541;-80
2023/07/19 07:51:03;;;;;;;3.20;1.70;;;;;;;;;;6233821;23;20433;-80
2023/07/19 07:53:30;;;;;;;3.60;1.57;;;;;;;;;;6230266;23;20682;-80
2023/07/19 07:55:57;;;;;;;3.93;2.07;;;;;;;;;;6224014;23;20410;-81
2023/07/19 07:58:30;;;;;;;6.43;1.77;;;;;;;;;;6231382;23;20417;-81
2023/07/19 08:01:00;;;;;;;5.23;1.87;;;;;;;;;;6228561;23;20391;-79
2023/07/19 08:03:28;;;;;;;4.63;1.70;;;;;;;;;;6226846;23;20414;-79
2023/07/19 08:05:55;;;;;;;7.70;1.60;;;;;;;;;;6231204;23;20410;-80
2023/07/19 08:08:26;;;;;;;6.67;2.30;;;;;;;;;;6233331;23;20476;-79
2023/07/19 08:10:55;;;;;;;6.87;1.80;;;;;;;;;;6231857;23;20441;-79
2023/07/19 08:13:23;;;;;;;5.97;1.97;;;;;;;;;;6230773;23;20532;-80
2023/07/19 08:15:53;;;;;;;4.90;2.80;;;;;;;;;;6229441;23;20391;-82
2023/07/19 08:18:26;;;;;;;5.23;3.27;;;;;;;;;;6229827;23;20418;-79
2023/07/19 08:20:55;;;;;;;5.20;2.10;;;;;;;;;;6230490;23;20414;-78
2023/07/19 08:23:24;;;;;;;4.67;2.10;;;;;;;;;;6231011;23;20445;-78
2023/07/19 08:25:56;;;;;;;5.93;2.67;;;;;;;;;;6228905;23;20414;-80
2023/07/19 08:28:26;;;;;;;8.13;4.60;;;;;;;;;;6234940;23;20426;-81
2023/07/19 08:30:54;;;;;;;4.53;1.63;;;;;;;;;;6233404;23;20410;-79
2023/07/19 08:33:24;;;;;;;19.47;9.03;;;;;;;;;;6228920;23;20425;-80
2023/07/19 08:35:53;;;;;;;8.77;2.87;;;;;;;;;;6231355;23;20448;-78
2023/07/19 08:38:20;;;;;;;6.30;2.07;;;;;;;;;;6230742;23;20643;-79
2023/07/19 08:40:55;;;;;;;4.40;1.83;;;;;;;;;;6224291;23;20445;-78
2023/07/19 08:43:29;;;;;;;11.20;3.17;;;;;;;;;;6232573;23;20394;-78
2023/07/19 08:46:04;;;;;;;3.40;1.37;;;;;;;;;;6235666;23;20394;-78
2023/07/19 08:49:02;;;;;;;3.90;1.70;;;;;;;;;;6232335;23;20468;-79
2023/07/19 08:51:34;;;;;;;4.80;2.63;;;;;;;;;;6222312;23;20410;-78
2023/07/19 08:54:11;;;;;;;4.87;2.10;;;;;;;;;;6229036;23;20390;-77
2023/07/19 08:56:48;;;;;;;4.77;1.50;;;;;;;;;;6228422;23;20448;-79
2023/07/19 08:59:17;;;;;;;5.30;1.90;;;;;;;;;;6224120;23;20747;-78
2023/07/19 09:01:46;;;;;;;3.93;1.43;;;;;;;;;;6233869;23;20497;-79
2023/07/19 09:04:16;;;;;;;6.90;1.70;;;;;;;;;;6227637;23;20428;-80
2023/07/19 09:06:46;;;;;;;3.47;1.80;;;;;;;;;;6232677;23;20390;-80
2023/07/19 09:09:16;;;;;;;4.20;1.63;;;;;;;;;;6234137;23;20457;-80
2023/07/19 09:11:48;;;;;;;5.43;1.70;;;;;;;;;;6229156;23;20440;-79
2023/07/19 09:14:49;;;;;;;5.10;1.60;;;;;;;;;;6232605;23;20457;-79
2023/07/19 09:17:18;;;;;;;4.70;1.47;;;;;;;;;;6230639;23;20434;-82
2023/07/19 09:20:10;;;;;;;5.67;2.10;;;;;;;;;;6233611;23;20706;-77
2023/07/19 09:22:46;;;;;;;5.27;1.70;;;;;;;;;;6232088;23;20426;-79
2023/07/19 09:25:15;;;;;;;3.70;1.60;;;;;;;;;;6228167;23;20783;-78
2023/07/19 09:27:48;;;;;;;5.30;2.27;;;;;;;;;;6235855;23;20446;-78
2023/07/19 09:33:19;;;;;;;5.17;1.83;;;;;;;;;;6225414;23;20429;-79
2023/07/19 09:35:51;;;;;;;5.03;2.00;;;;;;;;;;6232677;23;20426;-78
2023/07/19 09:38:33;;;;;;;4.97;2.10;;;;;;;;;;6233416;23;20460;-78
2023/07/19 09:41:01;;;;;;;4.40;1.70;;;;;;;;;;6226938;23;20977;-80
2023/07/19 09:43:30;;;;;;;4.47;1.63;;;;;;;;;;6227358;23;20410;-77
2023/07/19 09:46:06;;;;;;;3.20;1.50;;;;;;;;;;6234969;23;20482;-77
2023/07/19 09:48:36;;;;;;;4.03;2.20;;;;;;;;;;6232958;23;20363;-78
2023/07/19 09:51:04;;;;;;;4.00;1.50;;;;;;;;;;6231566;23;20425;-79
2023/07/19 09:53:40;;;;;;;3.20;1.47;;;;;;;;;;6230181;23;20455;-79
2023/07/19 09:56:09;;;;;;;4.27;1.50;;;;;;;;;;6225204;23;20398;-79
2023/07/19 09:58:37;;;;;;;3.67;1.80;;;;;;;;;;6227460;23;20482;-78
2023/07/19 10:01:05;;;;;;;4.23;1.83;;;;;;;;;;6228023;23;20414;-78
2023/07/19 10:03:37;;;;;;;3.27;1.47;;;;;;;;;;6231237;23;20378;-79
2023/07/19 10:06:05;;;;;;;8.00;1.93;;;;;;;;;;6233430;23;20474;-78
2023/07/19 10:08:34;;;;;;;4.13;1.87;;;;;;;;;;6233399;23;20409;-78
2023/07/19 10:11:03;;;;;;;10.83;1.90;;;;;;;;;;6233762;23;20410;-79
2023/07/19 10:13:31;;;;;;;3.90;1.77;;;;;;;;;;6233147;23;20595;-78
2023/07/19 10:15:59;;;;;;;5.33;1.90;;;;;;;;;;6233169;23;20446;-78
2023/07/19 10:18:29;;;;;;;3.23;1.60;;;;;;;;;;6233976;23;20389;-78
2023/07/19 10:21:05;;;;;;;4.77;1.57;;;;;;;;;;6229474;23;20436;-78
2023/07/19 10:23:35;;;;;;;5.90;2.23;;;;;;;;;;6232960;23;20404;-79
2023/07/19 10:26:09;;;;;;;4.90;1.80;;;;;;;;;;6234681;23;20410;-78
2023/07/19 10:28:49;;;;;;;4.90;3.17;;;;;;;;;;6232338;23;20405;-80
2023/07/19 10:34:08;;;;;;;4.27;2.50;;;;;;;;;;6227107;23;21057;-78
2023/07/19 10:43:37;;;;;;;5.80;1.40;;;;;;;;;;6229536;23;20382;-79
2023/07/19 10:46:10;;;;;;;3.00;1.40;;;;;;;;;;6231459;23;20418;-80
2023/07/19 10:48:39;;;;;;;5.80;1.50;;;;;;;;;;6234460;23;20486;-77
2023/07/19 10:51:10;;;;;;;3.90;1.90;;;;;;;;;;6228820;23;21076;-78
2023/07/19 10:53:50;;;;;;;4.83;1.90;;;;;;;;;;6233720;23;20425;-78
2023/07/19 10:56:45;;;;;;;3.13;1.73;;;;;;;;;;6231683;23;20414;-79
2023/07/19 10:59:27;;;;;;;4.17;1.90;;;;;;;;;;6229076;23;20393;-78
2023/07/19 11:02:21;;;;;;;11.80;5.70;;;;;;;;;;6232278;23;20446;-78
2023/07/19 11:07:41;;;;;;;2.60;1.40;;;;;;;;;;6235134;23;20410;-78
2023/07/19 11:13:00;;;;;;;4.13;1.90;;;;;;;;;;6230287;23;20414;-77
2023/07/19 11:15:31;;;;;;;3.37;1.83;;;;;;;;;;6229487;23;20488;-78
2023/07/19 11:18:06;;;;;;;3.80;1.30;;;;;;;;;;6232801;23;20410;-79
2023/07/19 11:20:39;;;;;;;3.73;1.97;;;;;;;;;;6227769;23;20405;-78
2023/07/19 11:23:08;;;;;;;5.23;2.50;;;;;;;;;;6228267;23;20384;-79
2023/07/19 11:25:46;;;;;;;5.70;2.87;;;;;;;;;;6227664;23;20418;-78
2023/07/19 11:28:37;;;;;;;3.13;1.50;;;;;;;;;;6231340;23;20425;-78
2023/07/19 11:31:20;;;;;;;4.80;2.30;;;;;;;;;;6230600;23;20433;-79
2023/07/19 11:34:11;;;;;;;5.73;2.33;;;;;;;;;;6226365;23;20520;-77
2023/07/19 11:36:56;;;;;;;4.10;2.23;;;;;;;;;;6204854;23;20493;-79
2023/07/19 11:39:28;;;;;;;5.70;1.90;;;;;;;;;;6225368;23;20437;-77
2023/07/19 11:41:58;;;;;;;4.13;1.67;;;;;;;;;;6231127;23;20394;-78
2023/07/19 11:44:28;;;;;;;4.40;1.63;;;;;;;;;;6235446;23;20420;-77
2023/07/19 11:47:00;;;;;;;9.80;2.00;;;;;;;;;;6225704;23;20410;-79
2023/07/19 11:49:32;;;;;;;6.70;1.80;;;;;;;;;;6232095;23;20806;-78
2023/07/19 11:52:08;;;;;;;5.53;1.87;;;;;;;;;;6227919;23;20425;-78
2023/07/19 11:54:44;;;;;;;5.70;1.77;;;;;;;;;;6219976;23;20513;-78
2023/07/19 11:57:11;;;;;;;3.90;1.80;;;;;;;;;;6220421;23;20386;-78
2023/07/19 11:59:39;;;;;;;5.10;2.40;;;;;;;;;;6225229;23;20510;-78
2023/07/19 12:02:15;;;;;;;3.30;1.83;;;;;;;;;;6227307;23;20685;-77
2023/07/19 12:04:43;;;;;;;3.77;1.70;;;;;;;;;;6229972;23;20437;-78
2023/07/19 12:07:11;;;;;;;6.10;2.40;;;;;;;;;;6232952;23;20402;-77
2023/07/19 12:09:42;;;;;;;4.27;1.90;;;;;;;;;;6231539;23;20477;-78
2023/07/19 12:12:15;;;;;;;3.77;1.80;;;;;;;;;;6228839;23;20445;-78
2023/07/19 12:14:45;;;;;;;4.70;1.70;;;;;;;;;;6228578;23;20406;-77
2023/07/19 12:17:14;;;;;;;3.70;1.97;;;;;;;;;;6227589;23;20455;-76
2023/07/19 12:19:45;;;;;;;4.13;1.80;;;;;;;;;;6228967;23;20424;-78
2023/07/19 12:22:13;;;;;;;6.80;2.30;;;;;;;;;;6227165;23;20471;-78
2023/07/19 12:24:41;;;;;;;2.90;1.50;;;;;;;;;;6222718;23;20418;-79
2023/07/19 12:27:10;;;;;;;6.17;1.70;;;;;;;;;;6227911;23;20469;-79
2023/07/19 12:29:39;;;;;;;5.67;1.93;;;;;;;;;;6229962;23;20469;-79
2023/07/19 12:32:07;;;;;;;7.10;1.60;;;;;;;;;;6228202;23;20414;-80
2023/07/19 12:34:35;;;;;;;5.97;2.30;;;;;;;;;;6229070;23;20398;-78
2023/07/19 12:37:03;;;;;;;5.57;2.27;;;;;;;;;;6231676;23;20399;-79
2023/07/19 12:39:32;;;;;;;9.43;2.10;;;;;;;;;;6230729;23;20440;-79
2023/07/19 12:42:06;;;;;;;5.93;1.93;;;;;;;;;;6231760;23;20414;-79
2023/07/19 12:44:37;;;;;;;6.20;1.83;;;;;;;;;;6233198;23;20491;-80
2023/07/19 12:47:08;;;;;;;5.17;1.93;;;;;;;;;;6231479;23;20464;-79
2023/07/19 12:49:36;;;;;;;5.67;2.10;;;;;;;;;;6233141;23;20402;-79
2023/07/19 12:52:05;;;;;;;7.00;2.47;;;;;;;;;;6235282;23;20440;-78
2023/07/19 12:54:35;;;;;;;4.60;1.90;;;;;;;;;;6232395;23;20460;-80
2023/07/19 12:57:03;;;;;;;6.90;3.07;;;;;;;;;;6230185;23;20481;-79
2023/07/19 12:59:32;;;;;;;5.93;1.87;;;;;;;;;;6229496;23;20465;-82
2023/07/19 13:02:02;;;;;;;7.17;4.37;;;;;;;;;;6230723;23;20458;-79
2023/07/19 13:04:32;;;;;;;5.70;1.97;;;;;;;;;;6230195;23;20412;-80
2023/07/19 13:07:03;;;;;;;4.03;1.80;;;;;;;;;;6234175;23;20429;-79
2023/07/19 13:09:31;;;;;;;4.50;1.63;;;;;;;;;;6230284;23;20430;-79
2023/07/19 13:11:59;;;;;;;3.77;1.70;;;;;;;;;;6229009;23;20466;-79
2023/07/19 13:14:27;;;;;;;3.43;1.70;;;;;;;;;;6233520;23;20425;-78
2023/07/19 13:16:59;;;;;;;5.20;1.67;;;;;;;;;;6228894;23;20464;-81
2023/07/19 13:19:27;;;;;;;5.30;1.70;;;;;;;;;;6227499;23;20432;-79
2023/07/19 13:21:56;;;;;;;3.90;1.63;;;;;;;;;;6231191;23;20410;-79
2023/07/19 13:24:24;;;;;;;5.53;2.40;;;;;;;;;;6228464;23;20453;-79
2023/07/19 13:27:01;;;;;;;4.37;2.60;;;;;;;;;;6227820;23;20484;-79
2023/07/19 13:29:29;;;;;;;6.57;2.60;;;;;;;;;;6225474;23;20418;-80
2023/07/19 13:32:00;;;;;;;6.50;2.30;;;;;;;;;;6227347;23;20538;-78
2023/07/19 13:34:30;;;;;;;3.73;1.40;;;;;;;;;;6228818;23;20874;-79
2023/07/19 13:37:00;;;;;;;3.67;1.87;;;;;;;;;;6225052;23;20387;-79
2023/07/19 13:39:28;;;;;;;3.67;1.70;;;;;;;;;;6229308;23;20410;-80
2023/07/19 13:41:56;;;;;;;3.37;1.70;;;;;;;;;;6229058;23;20429;-80
2023/07/19 13:44:24;;;;;;;4.00;2.17;;;;;;;;;;6232111;23;20481;-80
2023/07/19 13:46:55;;;;;;;4.50;1.53;;;;;;;;;;6226765;23;20408;-79
2023/07/19 13:49:30;;;;;;;3.73;1.77;;;;;;;;;;6230690;23;20383;-78
2023/07/19 13:52:00;;;;;;;4.13;2.40;;;;;;;;;;6205129;23;20437;-79
2023/07/19 13:54:31;;;;;;;3.03;2.00;;;;;;;;;;6230357;23;21055;-80
2023/07/19 13:56:59;;;;;;;3.10;2.00;;;;;;;;;;6233951;23;20401;-80
2023/07/19 13:59:31;;;;;;;7.47;4.20;;;;;;;;;;6228893;23;20413;-81
2023/07/19 14:01:59;;;;;;;9.20;1.80;;;;;;;;;;6233299;23;20436;-78
2023/07/19 14:04:30;;;;;;;5.03;2.10;;;;;;;;;;6232601;23;20391;-80
2023/07/19 14:07:09;;;;;;;4.17;2.00;;;;;;;;;;6231738;23;20518;-79
2023/07/19 14:09:39;;;;;;;3.90;2.07;;;;;;;;;;6229529;23;20472;-79
2023/07/19 14:12:07;;;;;;;3.33;1.80;;;;;;;;;;6227529;23;20450;-77
2023/07/19 14:14:36;;;;;;;3.63;1.57;;;;;;;;;;6228650;23;20414;-78
2023/07/19 14:17:05;;;;;;;5.40;2.33;;;;;;;;;;6224209;23;20469;-78
2023/07/19 14:19:33;;;;;;;4.10;2.03;;;;;;;;;;6232423;23;20437;-79
2023/07/19 14:22:02;;;;;;;4.80;3.50;;;;;;;;;;6229947;23;20450;-80
2023/07/19 14:24:30;;;;;;;2.87;1.70;;;;;;;;;;6227793;23;20414;-78
2023/07/19 14:26:58;;;;;;;3.77;1.60;;;;;;;;;;6226896;23;20414;-79
2023/07/19 14:29:26;;;;;;;4.23;1.80;;;;;;;;;;6228422;23;20453;-79
2023/07/19 14:31:54;;;;;;;3.30;2.03;;;;;;;;;;6229590;23;20442;-80
2023/07/19 14:34:22;;;;;;;3.80;2.60;;;;;;;;;;6228745;23;20652;-79
2023/07/19 14:36:50;;;;;;;3.13;2.40;;;;;;;;;;6231183;23;20403;-79
2023/07/19 14:39:29;;;;;;;4.37;2.20;;;;;;;;;;6230036;23;20416;-80
2023/07/19 14:41:57;;;;;;;9.50;2.40;;;;;;;;;;6227334;23;20414;-78
2023/07/19 14:44:29;;;;;;;3.50;2.00;;;;;;;;;;6229981;23;20420;-79
2023/07/19 14:46:58;;;;;;;5.93;2.27;;;;;;;;;;6226518;23;20438;-79
2023/07/19 14:49:26;;;;;;;4.33;2.60;;;;;;;;;;6229191;23;20394;-80
2023/07/19 14:51:54;;;;;;;6.97;2.37;;;;;;;;;;6231420;23;20426;-80
2023/07/19 14:57:00;;;;;;;7.53;4.10;;;;;;;;;;6173053;23;20738;-79
2023/07/19 14:59:28;;;;;;;6.13;3.13;;;;;;;;;;6224784;23;20423;-79
2023/07/19 15:01:56;;;;;;;6.87;3.80;;;;;;;;;;6225068;23;20403;-78
2023/07/19 15:04:24;;;;;;;4.17;2.20;;;;;;;;;;6224676;23;20390;-78
2023/07/19 15:06:52;;;;;;;5.43;1.73;;;;;;;;;;6221409;23;20786;-79
2023/07/19 15:09:20;;;;;;;9.10;5.77;;;;;;;;;;6223477;23;20410;-79
2023/07/19 15:11:59;;;;;;;6.97;3.80;;;;;;;;;;6228460;23;20528;-78
2023/07/19 15:14:29;;;;;;;2.40;1.40;;;;;;;;;;6228402;23;20829;-78
2023/07/19 15:16:57;;;;;;;3.40;1.53;;;;;;;;;;6224082;23;20555;-78
2023/07/19 15:19:29;;;;;;;5.20;1.37;;;;;;;;;;6226957;23;20394;-79